LFBL/LIG METAR and TAF weather

Enter ICAO airport designator
Station Type Date Time Source
LFBL METAR 2022/06/29 01:30 UTC NOAA

LFBL 290130Z AUTO VRB01KT CAVOK 14/09 Q1018 NOSIG


Station Type Date Time Source
LFBL Decoded METAR 2022/06/29 01:30 UTC NOAA

Limoges, France (LFBL) 45-52N 001-11E 402M
Jun 28, 2022 - 09:30 PM EDT / 2022.06.29 0130 UTC
Wind: Variable at 1 MPH (1 KT):0
Visibility: greater than 7 mile(s):0
Temperature: 57 F (14 C)
Dew Point: 48 F (9 C)
Relative Humidity: 71%
Pressure (altimeter): 30.06 in. Hg (1018 hPa)
ob: LFBL 290130Z AUTO VRB01KT CAVOK 14/09 Q1018 NOSIG
cycle: 1

Station Type Date Time Source
LFBL TAF 2022/06/28 18:45 UTC NOAA

TAF LFBL 281700Z 2818/2918 28007KT CAVOK
BECMG 2818/2820 VRB02KT
BECMG 2912/2914 28010KT

Example: see airport list